createdAt,value
2024-03-07T00:00:34.165Z,-0.11
2024-03-07T00:01:36.291Z,-0.12
2024-03-07T00:02:41.037Z,-0.12
2024-03-07T00:03:43.211Z,-0.17
2024-03-07T00:04:48.014Z,-0.16
2024-03-07T00:05:50.304Z,-0.20
2024-03-07T00:06:52.575Z,-0.17
2024-03-07T00:07:59.627Z,-0.26
2024-03-07T00:09:01.867Z,-0.27
2024-03-07T00:10:10.923Z,-0.33
2024-03-07T00:11:13.267Z,-0.30
2024-03-07T00:12:18.203Z,-0.26
2024-03-07T00:13:22.525Z,-0.26
2024-03-07T00:14:28.824Z,-0.26
2024-03-07T00:15:31.530Z,-0.19
2024-03-07T00:16:36.642Z,-0.20
2024-03-07T00:17:42.368Z,-0.15
2024-03-07T00:18:47.361Z,-0.10
2024-03-07T00:19:49.975Z,-0.03
2024-03-07T00:20:56.131Z,-0.01
2024-03-07T00:21:58.786Z,-0.04
2024-03-07T00:23:04.261Z,-0.01
2024-03-07T00:24:06.914Z,-0.02
2024-03-07T00:25:16.215Z,0.02
2024-03-07T00:26:18.429Z,-0.01
2024-03-07T00:27:22.140Z,-0.01
2024-03-07T00:28:30.514Z,-0.02
2024-03-07T00:29:33.097Z,-0.08
2024-03-07T00:30:38.964Z,-0.08
2024-03-07T00:31:41.081Z,-0.09
2024-03-07T00:32:46.193Z,-0.09
2024-03-07T00:33:59.764Z,-0.10
2024-03-07T00:35:13.100Z,-0.14
2024-03-07T00:36:15.270Z,-0.16
2024-03-07T00:37:20.682Z,-0.19
2024-03-07T00:38:22.892Z,-0.24
2024-03-07T00:39:27.983Z,-0.27
2024-03-07T00:40:33.860Z,-0.27
2024-03-07T00:41:38.647Z,-0.30
2024-03-07T00:42:40.778Z,-0.31
2024-03-07T00:43:45.947Z,-0.35
2024-03-07T00:44:48.156Z,-0.41
2024-03-07T00:45:53.522Z,-0.46
2024-03-07T00:46:55.660Z,-0.47
2024-03-07T00:48:00.526Z,-0.50
2024-03-07T00:49:02.849Z,-0.53
2024-03-07T00:50:10.234Z,-0.51
2024-03-07T00:51:12.563Z,-0.54
2024-03-07T00:52:17.292Z,-0.59
2024-03-07T00:53:19.444Z,-0.62
2024-03-07T00:54:21.948Z,-0.65
2024-03-07T00:55:26.772Z,-0.72
2024-03-07T00:56:31.489Z,-0.76
2024-03-07T00:57:36.227Z,-0.80
2024-03-07T00:58:38.381Z,-0.85
2024-03-07T00:59:43.227Z,-0.88
2024-03-07T01:00:45.404Z,-0.94
2024-03-07T01:01:50.404Z,-0.94
2024-03-07T01:02:55.319Z,-0.95
2024-03-07T01:03:57.711Z,-0.99
2024-03-07T01:05:02.891Z,-0.97
2024-03-07T01:06:05.520Z,-0.91
2024-03-07T01:07:10.203Z,-0.92
2024-03-07T01:08:15.462Z,-0.77
2024-03-07T01:09:20.397Z,-0.80
2024-03-07T01:10:22.584Z,-0.75
2024-03-07T01:11:27.507Z,-0.79
2024-03-07T01:12:35.655Z,-0.76
2024-03-07T01:13:41.132Z,-0.80
2024-03-07T01:14:43.270Z,-0.79
2024-03-07T01:15:48.159Z,-0.84
2024-03-07T01:16:50.477Z,-0.90
2024-03-07T01:17:55.550Z,-0.91
2024-03-07T01:18:57.707Z,-0.93
2024-03-07T01:20:04.377Z,-0.93
2024-03-07T01:21:07.448Z,-0.91
2024-03-07T01:22:12.190Z,-0.84
2024-03-07T01:23:14.307Z,-0.80
2024-03-07T01:24:21.877Z,-0.77
2024-03-07T01:25:24.449Z,-0.72
2024-03-07T01:26:29.175Z,-0.71
2024-03-07T01:27:33.984Z,-0.70
2024-03-07T01:28:39.172Z,-0.66
2024-03-07T01:29:42.729Z,-0.73
2024-03-07T01:30:47.952Z,-0.74
2024-03-07T01:31:50.472Z,-0.71
2024-03-07T01:32:55.246Z,-0.73
2024-03-07T01:33:57.546Z,-0.74
2024-03-07T01:35:02.579Z,-0.69
2024-03-07T01:36:06.421Z,-0.70
2024-03-07T01:37:11.548Z,-0.71
2024-03-07T01:38:14.819Z,-0.72
2024-03-07T01:39:20.831Z,-0.70
2024-03-07T01:40:23.229Z,-0.73
2024-03-07T01:41:28.018Z,-0.75
2024-03-07T01:42:30.244Z,-0.74
2024-03-07T01:43:37.992Z,-0.76
2024-03-07T01:44:42.011Z,-0.78
2024-03-07T01:45:46.845Z,-0.82
2024-03-07T01:46:51.251Z,-0.85
2024-03-07T01:47:56.959Z,-0.86
2024-03-07T01:49:00.162Z,-0.88
2024-03-07T01:50:05.067Z,-0.93
2024-03-07T01:51:07.778Z,-0.93
2024-03-07T01:52:13.705Z,-0.97
2024-03-07T01:53:15.945Z,-0.99
2024-03-07T01:54:20.693Z,-1.04
2024-03-07T01:55:23.763Z,-1.02
2024-03-07T01:56:25.989Z,-0.94
2024-03-07T01:57:30.962Z,-0.99
2024-03-07T01:58:38.018Z,-1.03
2024-03-07T01:59:43.808Z,-1.04
2024-03-07T02:00:46.147Z,-1.07
2024-03-07T02:01:51.097Z,-1.16
2024-03-07T02:02:54.609Z,-1.18
2024-03-07T02:03:59.585Z,-1.23
2024-03-07T02:05:01.860Z,-1.19
2024-03-07T02:06:07.268Z,-1.16
2024-03-07T02:07:12.680Z,-1.21
2024-03-07T02:08:18.130Z,-1.28
2024-03-07T02:09:20.911Z,-1.27
2024-03-07T02:10:25.628Z,-1.25
2024-03-07T02:11:27.907Z,-1.24
2024-03-07T02:12:33.616Z,-1.24
2024-03-07T02:13:38.577Z,-1.24
2024-03-07T02:14:43.307Z,-1.30
2024-03-07T02:15:45.623Z,-1.32
2024-03-07T02:16:50.428Z,-1.32
2024-03-07T02:17:52.726Z,-1.37
2024-03-07T02:18:58.809Z,-1.41
2024-03-07T02:20:01.158Z,-1.47
2024-03-07T02:21:13.044Z,-1.46
2024-03-07T02:22:15.593Z,-1.52
2024-03-07T02:23:20.388Z,-1.57
2024-03-07T02:24:22.778Z,-1.61
2024-03-07T02:25:28.257Z,-1.64
2024-03-07T02:26:30.458Z,-1.67
2024-03-07T02:27:35.264Z,-1.67
2024-03-07T02:28:37.452Z,-1.72
2024-03-07T02:29:42.202Z,-1.72
2024-03-07T02:30:47.060Z,-1.72
2024-03-07T02:31:53.030Z,-1.69
2024-03-07T02:32:56.928Z,-1.67
2024-03-07T02:34:02.483Z,-1.71
2024-03-07T02:35:05.412Z,-1.69
2024-03-07T02:36:12.908Z,-1.71
2024-03-07T02:37:15.098Z,-1.75
2024-03-07T02:38:20.637Z,-1.70
2024-03-07T02:39:23.055Z,-1.67
2024-03-07T02:40:27.855Z,-1.66
2024-03-07T02:41:30.005Z,-1.68
2024-03-07T02:42:34.995Z,-1.69
2024-03-07T02:43:39.632Z,-1.73
2024-03-07T02:44:44.381Z,-1.79
2024-03-07T02:45:46.652Z,-1.82
2024-03-07T02:46:51.509Z,-1.90
2024-03-07T02:47:55.700Z,-1.91
2024-03-07T02:49:00.713Z,-1.90
2024-03-07T02:50:02.924Z,-1.89
2024-03-07T02:51:08.176Z,-1.93
2024-03-07T02:52:12.893Z,-1.96
2024-03-07T02:53:17.650Z,-1.97
2024-03-07T02:54:21.813Z,-2.02
2024-03-07T02:55:26.539Z,-2.07
2024-03-07T02:56:28.831Z,-2.08
2024-03-07T02:57:33.652Z,-2.04
2024-03-07T02:58:35.781Z,-2.01
2024-03-07T02:59:40.531Z,-2.05
2024-03-07T03:00:42.662Z,-2.11
2024-03-07T03:01:47.578Z,-2.19
2024-03-07T03:02:50.681Z,-2.24
2024-03-07T03:03:55.721Z,-2.31
2024-03-07T03:04:57.947Z,-2.35
2024-03-07T03:06:03.843Z,-2.38
2024-03-07T03:07:06.609Z,-2.43
2024-03-07T03:08:15.425Z,-2.48
2024-03-07T03:09:19.119Z,-2.49
2024-03-07T03:10:27.990Z,-2.51
2024-03-07T03:11:31.269Z,-2.54
2024-03-07T03:12:38.322Z,-2.56
2024-03-07T03:13:40.869Z,-2.58
2024-03-07T03:14:47.207Z,-2.51
2024-03-07T03:15:49.363Z,-2.52
2024-03-07T03:16:54.029Z,-2.52
2024-03-07T03:17:56.297Z,-2.57
2024-03-07T03:18:59.075Z,-2.58
2024-03-07T03:20:04.563Z,-2.61
2024-03-07T03:21:06.776Z,-2.61
2024-03-07T03:22:11.532Z,-2.64
2024-03-07T03:23:20.973Z,-2.67
2024-03-07T03:24:26.942Z,-2.70
2024-03-07T03:25:29.074Z,-2.62
2024-03-07T03:26:34.099Z,-2.51
2024-03-07T03:27:36.261Z,-2.56
2024-03-07T03:28:42.728Z,-2.49
2024-03-07T03:29:46.403Z,-2.49
2024-03-07T03:30:49.778Z,-2.48
2024-03-07T03:31:54.701Z,-2.47
2024-03-07T03:32:56.970Z,-2.48
2024-03-07T03:33:59.323Z,-2.50
2024-03-07T03:35:04.440Z,-2.51
2024-03-07T03:36:06.887Z,-2.56
2024-03-07T03:37:12.722Z,-2.61
2024-03-07T03:38:19.456Z,-2.60
2024-03-07T03:39:24.811Z,-2.65
2024-03-07T03:40:27.384Z,-2.67
2024-03-07T03:41:33.368Z,-2.70
2024-03-07T03:42:37.378Z,-2.74
2024-03-07T03:43:42.415Z,-2.72
2024-03-07T03:44:44.567Z,-2.73
2024-03-07T03:45:49.454Z,-2.71
2024-03-07T03:46:51.666Z,-2.72
2024-03-07T03:47:57.688Z,-2.72
2024-03-07T03:48:59.931Z,-2.75
2024-03-07T03:50:04.688Z,-2.80
2024-03-07T03:51:08.834Z,-2.81
2024-03-07T03:52:13.637Z,-2.84
2024-03-07T03:53:19.335Z,-2.81
2024-03-07T03:54:24.128Z,-2.75
2024-03-07T03:55:27.657Z,-2.77
2024-03-07T03:56:33.462Z,-2.75
2024-03-07T03:57:35.691Z,-2.80
2024-03-07T03:58:40.420Z,-2.80
2024-03-07T03:59:45.983Z,-2.79
2024-03-07T04:00:50.800Z,-2.81
2024-03-07T04:01:53.021Z,-2.81
2024-03-07T04:02:57.925Z,-2.84
2024-03-07T04:04:00.092Z,-2.85
2024-03-07T04:05:05.043Z,-2.87
2024-03-07T04:06:08.424Z,-2.92
2024-03-07T04:07:13.451Z,-2.88
2024-03-07T04:08:18.775Z,-2.88
2024-03-07T04:09:24.824Z,-2.82
2024-03-07T04:10:26.975Z,-2.74
2024-03-07T04:11:31.766Z,-2.71
2024-03-07T04:12:34.267Z,-2.65
2024-03-07T04:13:39.686Z,-2.55
2024-03-07T04:14:42.497Z,-2.54
2024-03-07T04:15:47.221Z,-2.54
2024-03-07T04:16:49.425Z,-2.56
2024-03-07T04:17:54.434Z,-2.57
2024-03-07T04:18:59.103Z,-2.59
2024-03-07T04:20:04.290Z,-2.64
2024-03-07T04:21:06.576Z,-2.68
2024-03-07T04:22:12.215Z,-2.67
2024-03-07T04:23:14.696Z,-2.70
2024-03-07T04:24:22.084Z,-2.70
2024-03-07T04:25:26.263Z,-2.68
2024-03-07T04:26:31.063Z,-2.67
2024-03-07T04:27:33.943Z,-2.72
2024-03-07T04:28:38.787Z,-2.78
2024-03-07T04:29:40.960Z,-2.80
2024-03-07T04:30:46.624Z,-2.83
2024-03-07T04:31:49.184Z,-2.89
2024-03-07T04:32:53.971Z,-2.94
2024-03-07T04:33:56.217Z,-2.99
2024-03-07T04:35:02.098Z,-3.01
2024-03-07T04:36:05.251Z,-3.06
2024-03-07T04:37:10.632Z,-3.10
2024-03-07T04:38:16.626Z,-3.13
2024-03-07T04:39:33.678Z,-3.15
2024-03-07T04:40:36.091Z,-3.12
2024-03-07T04:41:41.203Z,-3.13
2024-03-07T04:42:43.999Z,-3.15
2024-03-07T04:43:48.744Z,-3.15
2024-03-07T04:44:50.981Z,-3.17
2024-03-07T04:45:53.218Z,-3.17
2024-03-07T04:46:59.217Z,-3.17
2024-03-07T04:48:01.673Z,-3.20
2024-03-07T04:49:06.362Z,-3.23
2024-03-07T04:50:12.054Z,-3.25
2024-03-07T04:51:16.861Z,-3.28
2024-03-07T04:52:18.931Z,-3.28
2024-03-07T04:53:23.724Z,-3.29
2024-03-07T04:54:30.058Z,-3.30
2024-03-07T04:55:35.024Z,-3.32
2024-03-07T04:56:37.159Z,-3.31
2024-03-07T04:57:42.979Z,-3.30
2024-03-07T04:58:46.089Z,-3.29
2024-03-07T04:59:50.902Z,-3.31
2024-03-07T05:00:53.171Z,-3.29
2024-03-07T05:01:59.008Z,-3.33
2024-03-07T05:03:01.178Z,-3.31
2024-03-07T05:04:04.493Z,-3.29
2024-03-07T05:05:09.568Z,-3.29
2024-03-07T05:06:11.696Z,-3.31
2024-03-07T05:07:16.466Z,-3.27
2024-03-07T05:08:18.623Z,-3.25
2024-03-07T05:09:27.616Z,-3.21
2024-03-07T05:10:32.810Z,-3.23
2024-03-07T05:11:38.567Z,-3.24
2024-03-07T05:12:40.725Z,-3.21
2024-03-07T05:13:45.560Z,-3.21
2024-03-07T05:14:47.791Z,-3.23
2024-03-07T05:15:52.017Z,-3.20
2024-03-07T05:17:06.591Z,-3.13
2024-03-07T05:18:09.518Z,-3.12
2024-03-07T05:19:15.374Z,-3.13
2024-03-07T05:20:17.655Z,-3.07
2024-03-07T05:21:39.597Z,-3.10
2024-03-07T05:22:42.318Z,-3.05
2024-03-07T05:23:47.137Z,-3.10
2024-03-07T05:24:51.402Z,-3.15
2024-03-07T05:25:58.777Z,-3.17
2024-03-07T05:27:01.229Z,-3.20
2024-03-07T05:28:06.685Z,-3.15
2024-03-07T05:29:10.676Z,-3.19
2024-03-07T05:30:17.104Z,-3.21
2024-03-07T05:31:22.202Z,-3.09
2024-03-07T05:32:26.906Z,-3.15
2024-03-07T05:33:32.010Z,-3.20
2024-03-07T05:34:35.286Z,-3.18
2024-03-07T05:35:45.010Z,-3.23
2024-03-07T05:36:48.004Z,-3.21
2024-03-07T05:37:53.685Z,-3.18
2024-03-07T05:38:55.934Z,-3.21
2024-03-07T05:40:01.315Z,-3.16
2024-03-07T05:41:06.237Z,-3.15
2024-03-07T05:42:15.329Z,-3.16
2024-03-07T05:43:17.603Z,-3.16
2024-03-07T05:44:23.809Z,-3.12
2024-03-07T05:45:25.976Z,-3.14
2024-03-07T05:46:30.723Z,-3.14
2024-03-07T05:47:33.116Z,-3.14
2024-03-07T05:48:37.999Z,-3.15
2024-03-07T05:49:40.286Z,-3.12
2024-03-07T05:50:47.356Z,-3.06
2024-03-07T05:51:52.223Z,-3.08
2024-03-07T05:52:56.965Z,-3.12
2024-03-07T05:53:59.257Z,-3.12
2024-03-07T05:55:04.023Z,-3.14
2024-03-07T05:56:09.474Z,-3.11
2024-03-07T05:57:14.568Z,-3.15
2024-03-07T05:58:17.320Z,-3.16
2024-03-07T05:59:19.564Z,-3.16
2024-03-07T06:00:29.221Z,-3.17
2024-03-07T06:01:34.154Z,-3.17
2024-03-07T06:02:38.895Z,-3.16
2024-03-07T06:03:41.565Z,-3.13
2024-03-07T06:04:47.191Z,-3.15
2024-03-07T06:05:49.812Z,-3.19
2024-03-07T06:06:55.308Z,-3.18
2024-03-07T06:07:57.991Z,-3.17
2024-03-07T06:09:00.340Z,-3.16
2024-03-07T06:10:07.801Z,-3.16
2024-03-07T06:11:14.609Z,-3.13
2024-03-07T06:12:27.138Z,-3.10
2024-03-07T06:13:30.308Z,-3.09
2024-03-07T06:14:35.202Z,-3.07
2024-03-07T06:15:39.540Z,-3.06
2024-03-07T06:16:46.475Z,-3.09
2024-03-07T06:17:48.670Z,-3.06
2024-03-07T06:18:53.477Z,-3.07
2024-03-07T06:19:55.613Z,-3.07
2024-03-07T06:20:57.790Z,-3.06
2024-03-07T06:22:02.550Z,-3.06
2024-03-07T06:23:06.575Z,-3.04
2024-03-07T06:24:13.444Z,-2.99
2024-03-07T06:25:20.490Z,-2.96
2024-03-07T06:26:38.470Z,-2.85
2024-03-07T06:27:49.899Z,-2.80
2024-03-07T06:28:52.021Z,-2.76
2024-03-07T06:29:57.029Z,-2.78
2024-03-07T06:30:59.837Z,-2.78
2024-03-07T06:32:07.774Z,-2.74
2024-03-07T06:33:10.397Z,-2.72
2024-03-07T06:34:15.292Z,-2.71
2024-03-07T06:35:17.631Z,-2.70
2024-03-07T06:36:23.226Z,-2.66
2024-03-07T06:37:25.348Z,-2.64
2024-03-07T06:38:31.088Z,-2.63
2024-03-07T06:39:33.258Z,-2.63
2024-03-07T06:40:38.497Z,-2.56
2024-03-07T06:41:43.720Z,-2.56
2024-03-07T06:42:48.494Z,-2.50
2024-03-07T06:43:51.212Z,-2.50
2024-03-07T06:44:56.008Z,-2.42
2024-03-07T06:45:58.270Z,-2.40
2024-03-07T06:47:04.354Z,-2.38
2024-03-07T06:48:08.425Z,-2.39
2024-03-07T06:49:13.294Z,-2.28
2024-03-07T06:50:27.451Z,-2.29
2024-03-07T06:51:37.831Z,-2.30
2024-03-07T06:52:39.978Z,-2.29
2024-03-07T06:53:44.796Z,-2.30
2024-03-07T06:54:47.116Z,-2.31
2024-03-07T06:55:50.336Z,-2.29
2024-03-07T06:56:57.833Z,-2.20
2024-03-07T06:58:00.016Z,-2.13
2024-03-07T06:59:06.324Z,-2.15
2024-03-07T07:00:12.426Z,-2.14
2024-03-07T07:01:17.721Z,-2.14
2024-03-07T07:02:20.039Z,-2.11
2024-03-07T07:03:25.285Z,-2.10
2024-03-07T07:04:40.096Z,-2.05
2024-03-07T07:05:46.097Z,-2.03
2024-03-07T07:06:48.260Z,-1.93
2024-03-07T07:07:53.206Z,-1.88
2024-03-07T07:08:55.356Z,-1.83
2024-03-07T07:10:00.241Z,-1.79
2024-03-07T07:11:02.401Z,-1.67
2024-03-07T07:12:10.537Z,-1.61
2024-03-07T07:13:14.512Z,-1.58
2024-03-07T07:14:22.081Z,-1.53
2024-03-07T07:15:24.321Z,-1.52
2024-03-07T07:16:31.191Z,-1.49
2024-03-07T07:17:33.549Z,-1.44
2024-03-07T07:18:39.944Z,-1.42
2024-03-07T07:19:42.264Z,-1.35
2024-03-07T07:20:50.593Z,-1.37
2024-03-07T07:21:54.957Z,-1.32
2024-03-07T07:23:02.113Z,-1.29
2024-03-07T07:24:04.945Z,-1.31
2024-03-07T07:25:14.566Z,-1.28
2024-03-07T07:26:16.840Z,-1.15
2024-03-07T07:27:22.857Z,-1.11
2024-03-07T07:28:28.306Z,-1.02
2024-03-07T07:29:30.875Z,-1.04
2024-03-07T07:30:35.767Z,-0.97
2024-03-07T07:31:37.918Z,-0.91
2024-03-07T07:32:44.299Z,-0.92
2024-03-07T07:33:47.274Z,-0.83
2024-03-07T07:34:52.767Z,-0.80
2024-03-07T07:35:54.914Z,-0.72
2024-03-07T07:36:59.662Z,-0.65
2024-03-07T07:38:03.275Z,-0.71
2024-03-07T07:39:08.011Z,-0.66
2024-03-07T07:40:14.405Z,-0.57
2024-03-07T07:41:19.102Z,-0.58
2024-03-07T07:42:23.804Z,-0.59
2024-03-07T07:43:41.529Z,-0.43
2024-03-07T07:44:45.527Z,-0.40
2024-03-07T07:45:50.746Z,-0.42
2024-03-07T07:46:52.871Z,-0.45
2024-03-07T07:47:57.900Z,-0.44
2024-03-07T07:49:00.121Z,-0.37
2024-03-07T07:50:08.353Z,-0.24
2024-03-07T07:51:10.595Z,-0.30
2024-03-07T07:52:17.469Z,-0.25
2024-03-07T07:53:19.712Z,-0.21
2024-03-07T07:54:26.003Z,-0.17
2024-03-07T07:55:29.069Z,-0.15
2024-03-07T07:56:33.921Z,-0.26
2024-03-07T07:57:39.997Z,-0.16
2024-03-07T07:58:45.424Z,-0.05
2024-03-07T07:59:47.596Z,-0.03
2024-03-07T08:00:52.368Z,0.01
2024-03-07T08:01:56.893Z,-0.02
2024-03-07T08:03:03.313Z,0.04
2024-03-07T08:04:05.810Z,0.14
2024-03-07T08:05:10.288Z,0.18
2024-03-07T08:06:15.345Z,0.24
2024-03-07T08:07:17.684Z,0.24
2024-03-07T08:08:23.434Z,0.08
2024-03-07T08:09:25.954Z,0.16
2024-03-07T08:10:32.446Z,0.21
2024-03-07T08:11:34.706Z,0.42
2024-03-07T08:12:40.213Z,0.41
2024-03-07T08:13:45.207Z,0.41
2024-03-07T08:14:47.474Z,0.48
2024-03-07T08:15:55.223Z,0.50
2024-03-07T08:16:57.666Z,0.43
2024-03-07T08:18:03.491Z,0.49
2024-03-07T08:19:06.059Z,0.40
2024-03-07T08:20:12.789Z,0.61
2024-03-07T08:21:17.482Z,0.75
2024-03-07T08:22:20.740Z,0.79
2024-03-07T08:23:26.772Z,0.86
2024-03-07T08:24:29.490Z,0.98
2024-03-07T08:25:34.283Z,1.06
2024-03-07T08:26:36.449Z,1.26
2024-03-07T08:27:46.048Z,1.38
2024-03-07T08:28:48.306Z,1.51
2024-03-07T08:29:53.137Z,1.86
2024-03-07T08:30:56.105Z,2.16
2024-03-07T08:32:00.915Z,2.45
2024-03-07T08:33:04.814Z,2.64
2024-03-07T08:34:09.662Z,2.86
2024-03-07T08:35:12.946Z,3.06
2024-03-07T08:36:17.737Z,3.23
2024-03-07T08:37:20.068Z,3.36
2024-03-07T08:38:24.901Z,3.50
2024-03-07T08:39:27.411Z,3.98
2024-03-07T08:40:34.502Z,4.28
2024-03-07T08:41:42.294Z,4.51
2024-03-07T08:42:51.510Z,5.07
2024-03-07T08:43:53.723Z,5.39
2024-03-07T08:44:55.980Z,5.65
2024-03-07T08:46:01.092Z,5.71
2024-03-07T08:47:03.267Z,5.93
2024-03-07T08:48:10.826Z,6.19
2024-03-07T08:49:15.878Z,6.41
2024-03-07T08:50:21.857Z,6.69
2024-03-07T08:51:24.440Z,6.66
2024-03-07T08:52:26.727Z,6.71
2024-03-07T08:53:31.673Z,6.50
2024-03-07T08:54:34.885Z,7.14
2024-03-07T08:55:39.639Z,7.18
2024-03-07T08:56:42.588Z,7.84
2024-03-07T08:57:50.626Z,7.91
2024-03-07T08:58:52.901Z,7.88
2024-03-07T08:59:57.939Z,8.36
2024-03-07T09:01:00.664Z,8.38
2024-03-07T09:02:06.886Z,8.79
2024-03-07T09:03:12.586Z,9.04
2024-03-07T09:04:19.241Z,8.92
2024-03-07T09:05:23.744Z,8.71
2024-03-07T09:06:29.127Z,9.14
2024-03-07T09:07:31.348Z,9.37
2024-03-07T09:08:36.107Z,9.65
2024-03-07T09:09:38.284Z,9.52
2024-03-07T09:10:43.684Z,9.74
2024-03-07T09:11:46.158Z,9.76
2024-03-07T09:12:53.440Z,9.50
2024-03-07T09:13:58.588Z,9.85
2024-03-07T09:15:03.777Z,10.13
2024-03-07T09:16:08.964Z,10.44
2024-03-07T09:17:11.087Z,10.45
2024-03-07T09:18:16.193Z,10.42
2024-03-07T09:19:21.566Z,9.81
2024-03-07T09:20:26.448Z,10.19
2024-03-07T09:21:28.611Z,10.65
2024-03-07T09:22:34.037Z,10.54
2024-03-07T09:23:36.328Z,9.57
2024-03-07T09:24:41.292Z,10.29
2024-03-07T09:25:44.271Z,10.77
2024-03-07T09:26:46.832Z,10.26
2024-03-07T09:27:55.940Z,10.59
2024-03-07T09:28:58.484Z,10.50
2024-03-07T09:30:03.325Z,10.90
2024-03-07T09:31:05.550Z,9.98
2024-03-07T09:32:10.795Z,9.71
2024-03-07T09:33:13.359Z,9.62
2024-03-07T09:34:18.239Z,10.20
2024-03-07T09:35:20.763Z,10.80
2024-03-07T09:36:25.568Z,10.69
2024-03-07T09:37:27.965Z,10.69
2024-03-07T09:38:32.752Z,10.99
2024-03-07T09:39:36.321Z,10.57
2024-03-07T09:40:38.970Z,10.91
2024-03-07T09:41:43.744Z,10.98
2024-03-07T09:42:49.796Z,10.86
2024-03-07T09:44:00.108Z,10.37
2024-03-07T09:45:04.566Z,10.63
2024-03-07T09:46:11.384Z,10.65
2024-03-07T09:47:15.315Z,10.11
2024-03-07T09:48:21.165Z,9.58
2024-03-07T09:49:24.109Z,9.26
2024-03-07T09:50:29.315Z,8.88
2024-03-07T09:51:34.719Z,9.05
2024-03-07T09:52:37.534Z,8.82
2024-03-07T09:53:45.070Z,8.66
2024-03-07T09:54:47.339Z,8.32
2024-03-07T09:55:52.256Z,8.56
2024-03-07T09:56:55.945Z,8.67
2024-03-07T09:58:04.874Z,8.82
2024-03-07T09:59:14.628Z,9.09
2024-03-07T10:00:28.401Z,9.05
2024-03-07T10:01:35.291Z,8.22
2024-03-07T10:02:43.536Z,7.53
2024-03-07T10:03:48.541Z,7.17
2024-03-07T10:04:55.293Z,7.79
2024-03-07T10:05:57.551Z,8.48
2024-03-07T10:07:02.947Z,8.76
2024-03-07T10:08:07.002Z,8.98
2024-03-07T10:09:14.500Z,8.71
2024-03-07T10:10:17.403Z,8.91
2024-03-07T10:11:22.308Z,8.97
2024-03-07T10:12:24.684Z,9.19
2024-03-07T10:13:32.918Z,9.10
2024-03-07T10:14:38.755Z,9.08
2024-03-07T10:15:44.656Z,8.61
2024-03-07T10:16:48.033Z,9.19
2024-03-07T10:17:52.937Z,9.50
2024-03-07T10:18:55.235Z,9.17
2024-03-07T10:20:02.343Z,9.35
2024-03-07T10:21:05.541Z,8.42
2024-03-07T10:22:10.572Z,8.51
2024-03-07T10:23:12.924Z,7.88
2024-03-07T10:24:19.167Z,8.24
2024-03-07T10:25:23.623Z,8.32
2024-03-07T10:26:28.454Z,8.43
2024-03-07T10:27:31.053Z,7.99
2024-03-07T10:28:36.238Z,7.85
2024-03-07T10:29:41.174Z,8.26
2024-03-07T10:30:46.877Z,8.41
2024-03-07T10:31:57.468Z,8.15
2024-03-07T10:33:08.810Z,8.06
2024-03-07T10:34:11.079Z,8.36
2024-03-07T10:35:15.532Z,7.59
2024-03-07T10:36:20.675Z,7.56
2024-03-07T10:37:22.763Z,7.73
2024-03-07T10:38:27.546Z,7.56
2024-03-07T10:39:29.680Z,7.64
2024-03-07T10:40:34.446Z,7.67
2024-03-07T10:41:38.147Z,7.75
2024-03-07T10:42:46.914Z,7.40
2024-03-07T10:43:54.812Z,7.67
2024-03-07T10:45:12.165Z,8.47
2024-03-07T10:46:15.857Z,8.41
2024-03-07T10:47:22.540Z,8.41
2024-03-07T10:48:31.079Z,8.74
2024-03-07T10:49:40.727Z,8.98
2024-03-07T10:50:56.781Z,9.09
2024-03-07T10:52:07.711Z,8.80
2024-03-07T10:53:17.144Z,8.98
2024-03-07T10:54:32.062Z,8.20
2024-03-07T10:55:40.399Z,8.26
2024-03-07T10:56:59.281Z,7.93
2024-03-07T10:58:07.705Z,8.05
2024-03-07T10:59:20.812Z,7.99
2024-03-07T11:00:31.760Z,7.95
2024-03-07T11:01:40.291Z,8.17
2024-03-07T11:02:52.357Z,8.59
2024-03-07T11:03:58.787Z,8.54
2024-03-07T11:05:01.505Z,8.40
2024-03-07T11:06:08.276Z,8.60
2024-03-07T11:07:12.372Z,8.62
2024-03-07T11:08:18.218Z,8.47
2024-03-07T11:09:24.733Z,8.40
2024-03-07T11:10:30.728Z,8.46
2024-03-07T11:11:33.905Z,8.33
2024-03-07T11:12:40.721Z,8.46
2024-03-07T11:13:43.551Z,8.79
2024-03-07T11:14:47.847Z,8.82
2024-03-07T11:15:58.916Z,8.46
2024-03-07T11:17:02.238Z,7.85
2024-03-07T11:18:09.642Z,8.20
2024-03-07T11:19:27.644Z,7.86
2024-03-07T11:20:39.279Z,8.08
2024-03-07T11:21:44.820Z,8.52
2024-03-07T11:22:47.226Z,8.73
2024-03-07T11:23:52.052Z,8.50
2024-03-07T11:25:02.055Z,8.43
2024-03-07T11:26:09.213Z,8.27
2024-03-07T11:27:15.250Z,8.34
2024-03-07T11:28:21.777Z,8.03
2024-03-07T11:29:55.097Z,8.52
2024-03-07T11:31:11.635Z,8.68
2024-03-07T11:32:18.049Z,8.38
2024-03-07T11:33:22.113Z,8.00
2024-03-07T11:34:33.952Z,7.98
2024-03-07T11:35:37.250Z,8.11
2024-03-07T11:36:46.533Z,8.05
2024-03-07T11:37:53.333Z,8.16
2024-03-07T11:38:55.511Z,7.97
2024-03-07T11:40:09.299Z,7.86
2024-03-07T11:41:14.863Z,7.75
2024-03-07T11:42:31.831Z,7.34
2024-03-07T11:43:34.420Z,7.15
2024-03-07T11:44:41.328Z,7.19
2024-03-07T11:45:46.856Z,7.23
2024-03-07T11:46:54.778Z,7.23
2024-03-07T11:48:02.144Z,7.00
2024-03-07T11:49:11.448Z,7.22
2024-03-07T11:50:14.013Z,7.25
2024-03-07T11:51:26.595Z,7.31
2024-03-07T11:52:29.321Z,7.17
2024-03-07T11:53:36.662Z,7.37
2024-03-07T11:54:41.499Z,7.29
2024-03-07T11:55:47.635Z,7.47
2024-03-07T11:56:52.950Z,7.63
2024-03-07T11:57:58.163Z,7.64
2024-03-07T11:59:01.065Z,7.81
2024-03-07T12:00:12.165Z,8.04
2024-03-07T12:01:15.425Z,7.88
2024-03-07T12:02:25.192Z,7.97
2024-03-07T12:03:28.912Z,7.52
2024-03-07T12:04:36.161Z,7.61
2024-03-07T12:05:40.754Z,7.54
2024-03-07T12:06:54.579Z,7.29
2024-03-07T12:07:58.439Z,7.61
2024-03-07T12:09:04.067Z,7.55
2024-03-07T12:10:08.197Z,7.56
2024-03-07T12:11:17.226Z,7.49
2024-03-07T12:12:19.615Z,7.60
2024-03-07T12:13:26.242Z,7.57
2024-03-07T12:14:29.143Z,7.17
2024-03-07T12:15:34.905Z,7.00
2024-03-07T12:16:37.235Z,7.02
2024-03-07T12:17:42.868Z,6.94
2024-03-07T12:18:48.457Z,7.02
2024-03-07T12:19:52.578Z,7.10
2024-03-07T12:21:00.309Z,6.98
2024-03-07T12:22:03.428Z,6.98
2024-03-07T12:23:09.906Z,7.05
2024-03-07T12:24:16.535Z,6.92
2024-03-07T12:25:23.121Z,6.98
2024-03-07T12:26:31.466Z,6.82
2024-03-07T12:27:34.447Z,6.80
2024-03-07T12:28:40.434Z,6.95
2024-03-07T12:29:43.844Z,6.81
2024-03-07T12:30:53.750Z,6.72
2024-03-07T12:31:56.584Z,6.77
2024-03-07T12:33:05.471Z,6.82
2024-03-07T12:34:10.471Z,6.92
2024-03-07T12:35:14.172Z,7.17
2024-03-07T12:36:19.155Z,6.97
2024-03-07T12:37:29.361Z,7.09
2024-03-07T12:38:37.452Z,7.46
2024-03-07T12:39:47.772Z,7.76
2024-03-07T12:41:08.734Z,7.65
2024-03-07T12:42:12.998Z,7.95
2024-03-07T12:43:20.004Z,7.91
2024-03-07T12:44:23.111Z,7.82
2024-03-07T12:45:29.770Z,7.98
2024-03-07T12:46:32.402Z,8.00
2024-03-07T12:47:38.930Z,8.19
2024-03-07T12:48:47.157Z,8.05
2024-03-07T12:49:52.711Z,8.26
2024-03-07T12:50:55.333Z,8.33
2024-03-07T12:52:00.709Z,8.09
2024-03-07T12:53:07.228Z,7.77
2024-03-07T12:54:13.370Z,7.71
2024-03-07T12:55:19.529Z,7.83
2024-03-07T12:56:24.664Z,7.81
2024-03-07T12:57:26.827Z,7.89
2024-03-07T12:58:32.228Z,7.93
2024-03-07T12:59:34.521Z,8.03
2024-03-07T13:00:39.710Z,8.05
2024-03-07T13:01:46.494Z,7.94
2024-03-07T13:02:51.531Z,8.13
2024-03-07T13:03:56.358Z,8.20
2024-03-07T13:05:02.256Z,8.41
2024-03-07T13:06:06.383Z,8.52
2024-03-07T13:07:11.631Z,8.64
2024-03-07T13:08:13.916Z,8.39
2024-03-07T13:09:28.097Z,8.50
2024-03-07T13:10:31.014Z,8.95
2024-03-07T13:11:36.442Z,9.42
2024-03-07T13:12:42.954Z,9.56
2024-03-07T13:13:48.451Z,9.69
2024-03-07T13:14:50.653Z,9.89
2024-03-07T13:15:56.539Z,10.87
2024-03-07T13:17:01.924Z,10.80
2024-03-07T13:18:06.448Z,10.84
2024-03-07T13:19:15.940Z,10.97
2024-03-07T13:20:23.277Z,10.74
2024-03-07T13:21:28.581Z,10.91
2024-03-07T13:22:33.262Z,11.60
2024-03-07T13:23:41.729Z,12.22
2024-03-07T13:24:45.833Z,12.98
2024-03-07T13:25:51.110Z,13.34
2024-03-07T13:26:53.722Z,12.97
2024-03-07T13:28:04.080Z,13.10
2024-03-07T13:29:06.339Z,12.65
2024-03-07T13:30:09.845Z,12.13
2024-03-07T13:31:18.526Z,12.08
2024-03-07T13:32:20.862Z,11.79
2024-03-07T13:33:26.634Z,11.27
2024-03-07T13:34:31.801Z,11.18
2024-03-07T13:35:37.463Z,11.37
2024-03-07T13:36:39.674Z,11.29
2024-03-07T13:37:41.825Z,10.85
2024-03-07T13:38:46.819Z,10.12
2024-03-07T13:39:48.992Z,9.46
2024-03-07T13:40:54.287Z,9.17
2024-03-07T13:41:56.549Z,9.19
2024-03-07T13:43:03.046Z,9.37
2024-03-07T13:44:05.652Z,9.43
2024-03-07T13:45:12.680Z,9.16
2024-03-07T13:46:19.309Z,9.32
2024-03-07T13:47:21.896Z,9.56
2024-03-07T13:48:26.697Z,10.06
2024-03-07T13:49:31.527Z,10.89
2024-03-07T13:50:50.594Z,11.51
2024-03-07T13:52:05.295Z,12.55
2024-03-07T13:53:20.310Z,13.61
2024-03-07T13:54:29.900Z,14.36
2024-03-07T13:55:37.872Z,14.02
2024-03-07T13:56:48.148Z,14.18
2024-03-07T13:58:00.892Z,13.84
2024-03-07T13:59:32.088Z,13.35
2024-03-07T14:00:49.266Z,12.59
2024-03-07T14:02:11.296Z,11.50
2024-03-07T14:03:45.910Z,11.59
2024-03-07T14:05:30.137Z,11.27
2024-03-07T14:06:46.639Z,10.27
2024-03-07T14:08:16.549Z,9.92
2024-03-07T14:09:47.262Z,9.95
2024-03-07T14:11:20.677Z,9.61
2024-03-07T14:12:38.952Z,9.54